createdAt,value
2023-02-25T00:01:21.576Z,14.73
2023-02-25T00:03:53.016Z,19.57
2023-02-25T00:06:23.903Z,15.50
2023-02-25T00:08:53.123Z,15.60
2023-02-25T00:11:22.454Z,15.70
2023-02-25T00:13:50.866Z,14.03
2023-02-25T00:16:20.440Z,17.00
2023-02-25T00:18:49.504Z,14.10
2023-02-25T00:21:18.435Z,19.60
2023-02-25T00:23:49.856Z,13.70
2023-02-25T00:26:18.931Z,16.70
2023-02-25T00:28:48.922Z,18.40
2023-02-25T00:31:19.382Z,12.77
2023-02-25T00:33:48.042Z,17.97
2023-02-25T00:36:20.157Z,12.60
2023-02-25T00:38:50.485Z,12.43
2023-02-25T00:41:20.905Z,11.80
2023-02-25T00:43:51.952Z,21.53
2023-02-25T00:46:21.446Z,11.63
2023-02-25T00:48:50.097Z,14.40
2023-02-25T00:51:20.677Z,12.07
2023-02-25T00:53:50.560Z,13.03
2023-02-25T00:56:20.392Z,13.50
2023-02-25T00:58:51.056Z,12.63
2023-02-25T01:01:23.016Z,17.17
2023-02-25T01:03:53.547Z,13.90
2023-02-25T01:06:22.217Z,13.43
2023-02-25T01:08:52.471Z,14.33
2023-02-25T01:11:24.754Z,14.10
2023-02-25T01:13:53.009Z,18.30
2023-02-25T01:16:23.910Z,18.53
2023-02-25T01:18:54.469Z,13.67
2023-02-25T01:21:27.280Z,12.83
2023-02-25T01:23:59.641Z,19.90
2023-02-25T01:26:29.509Z,10.90
2023-02-25T01:28:57.941Z,14.60
2023-02-25T01:31:30.232Z,14.10
2023-02-25T01:34:00.194Z,15.67
2023-02-25T01:36:29.804Z,12.83
2023-02-25T01:39:00.435Z,14.57
2023-02-25T01:41:31.098Z,20.40
2023-02-25T01:44:06.707Z,16.23
2023-02-25T01:46:35.069Z,14.83
2023-02-25T01:49:08.014Z,18.73
2023-02-25T01:51:38.210Z,20.37
2023-02-25T01:54:12.100Z,17.33
2023-02-25T01:56:43.557Z,17.37
2023-02-25T01:59:12.356Z,20.63
2023-02-25T02:01:41.761Z,19.87
2023-02-25T02:04:11.872Z,18.13
2023-02-25T02:06:42.028Z,22.63
2023-02-25T02:09:14.445Z,14.97
2023-02-25T02:11:43.112Z,17.30
2023-02-25T02:14:15.694Z,20.40
2023-02-25T02:17:02.540Z,17.00
2023-02-25T02:19:43.208Z,16.13
2023-02-25T02:22:16.509Z,15.67
2023-02-25T02:25:29.736Z,25.57
2023-02-25T02:28:33.889Z,22.57
2023-02-25T02:31:24.679Z,23.97
2023-02-25T02:34:00.780Z,23.03
2023-02-25T02:36:41.870Z,22.40
2023-02-25T02:39:21.686Z,19.60
2023-02-25T02:41:58.369Z,22.67
2023-02-25T02:44:32.562Z,16.03
2023-02-25T02:47:07.399Z,16.90
2023-02-25T02:49:43.453Z,26.20
2023-02-25T02:52:16.944Z,20.33
2023-02-25T02:54:52.940Z,17.70
2023-02-25T02:57:23.518Z,20.13
2023-02-25T02:59:55.976Z,19.10
2023-02-25T03:02:30.489Z,16.90
2023-02-25T03:05:03.884Z,24.10
2023-02-25T03:07:34.526Z,15.80
2023-02-25T03:10:08.046Z,17.90
2023-02-25T03:12:39.110Z,14.60
2023-02-25T03:15:10.126Z,16.43
2023-02-25T03:17:46.104Z,19.03
2023-02-25T03:20:20.002Z,16.07
2023-02-25T03:22:50.360Z,19.93
2023-02-25T03:25:21.877Z,20.43
2023-02-25T03:27:53.558Z,18.30
2023-02-25T03:30:32.763Z,16.37
2023-02-25T03:33:06.572Z,17.30
2023-02-25T03:35:37.663Z,15.50
2023-02-25T03:38:09.482Z,18.37
2023-02-25T03:40:39.836Z,16.37
2023-02-25T03:43:12.920Z,23.73
2023-02-25T03:45:44.646Z,14.47
2023-02-25T03:48:16.253Z,12.33
2023-02-25T03:50:49.494Z,24.00
2023-02-25T03:53:18.100Z,17.40
2023-02-25T03:55:54.606Z,23.43
2023-02-25T03:58:23.115Z,12.53
2023-02-25T04:00:56.085Z,19.33
2023-02-25T04:03:27.563Z,18.13
2023-02-25T04:05:55.936Z,15.13
2023-02-25T04:08:24.228Z,23.50
2023-02-25T04:10:52.609Z,14.57
2023-02-25T04:13:21.294Z,19.03
2023-02-25T04:15:51.807Z,17.93
2023-02-25T04:18:20.770Z,14.27
2023-02-25T04:20:50.455Z,13.20
2023-02-25T04:23:18.806Z,13.97
2023-02-25T04:25:47.165Z,17.67
2023-02-25T04:28:15.428Z,14.33
2023-02-25T04:30:43.899Z,13.33
2023-02-25T04:33:12.993Z,15.97
2023-02-25T04:35:41.156Z,14.33
2023-02-25T04:38:10.963Z,23.77
2023-02-25T04:40:39.181Z,14.33
2023-02-25T04:43:09.909Z,15.73
2023-02-25T04:45:38.110Z,17.27
2023-02-25T04:48:06.830Z,23.10
2023-02-25T04:50:35.676Z,15.43
2023-02-25T04:53:03.929Z,16.77
2023-02-25T04:55:33.553Z,16.03
2023-02-25T04:58:01.764Z,17.97
2023-02-25T05:00:30.158Z,11.80
2023-02-25T05:02:59.091Z,18.13
2023-02-25T05:05:27.295Z,17.67
2023-02-25T05:07:55.684Z,15.77
2023-02-25T05:10:24.298Z,9.83
2023-02-25T05:12:54.129Z,11.23
2023-02-25T05:15:22.364Z,10.07
2023-02-25T05:17:50.533Z,13.70
2023-02-25T05:20:19.017Z,14.37
2023-02-25T05:22:47.263Z,15.53
2023-02-25T05:25:15.914Z,11.00
2023-02-25T05:27:44.117Z,12.50
2023-02-25T05:30:15.250Z,11.97
2023-02-25T05:32:43.903Z,14.83
2023-02-25T05:35:12.206Z,9.60
2023-02-25T05:37:40.606Z,9.47
2023-02-25T05:40:10.426Z,11.73
2023-02-25T05:42:38.710Z,10.53
2023-02-25T05:45:08.606Z,10.53
2023-02-25T05:47:38.471Z,15.93
2023-02-25T05:50:07.514Z,12.87
2023-02-25T05:52:36.045Z,10.57
2023-02-25T05:55:04.716Z,16.10
2023-02-25T05:57:33.171Z,9.83
2023-02-25T06:00:01.792Z,11.00
2023-02-25T06:02:29.939Z,8.07
2023-02-25T06:04:59.851Z,9.30
2023-02-25T06:07:30.847Z,7.47
2023-02-25T06:10:00.814Z,7.33
2023-02-25T06:12:30.396Z,7.73
2023-02-25T06:14:58.948Z,8.83
2023-02-25T06:17:27.380Z,12.13
2023-02-25T06:19:56.299Z,9.30
2023-02-25T06:22:25.933Z,8.83
2023-02-25T06:24:54.268Z,8.30
2023-02-25T06:27:22.509Z,9.63
2023-02-25T06:29:50.934Z,8.17
2023-02-25T06:32:19.830Z,8.77
2023-02-25T06:34:48.265Z,9.80
2023-02-25T06:37:16.841Z,7.63
2023-02-25T06:39:46.737Z,7.63
2023-02-25T06:42:15.097Z,10.80
2023-02-25T06:44:43.234Z,8.73
2023-02-25T06:47:11.532Z,7.07
2023-02-25T06:49:40.145Z,12.80
2023-02-25T06:52:08.405Z,12.40
2023-02-25T06:54:36.898Z,14.53
2023-02-25T06:57:06.618Z,16.90
2023-02-25T06:59:35.861Z,15.83
2023-02-25T07:02:04.395Z,19.37
2023-02-25T07:04:33.048Z,16.30
2023-02-25T07:07:01.301Z,16.97
2023-02-25T07:09:29.883Z,14.30
2023-02-25T07:11:58.037Z,13.83
2023-02-25T07:14:28.479Z,15.60
2023-02-25T07:16:56.640Z,13.77
2023-02-25T07:19:26.266Z,13.63
2023-02-25T07:21:54.357Z,19.17
2023-02-25T07:24:23.298Z,12.10
2023-02-25T07:26:51.508Z,13.50
2023-02-25T07:29:19.619Z,13.03
2023-02-25T07:31:49.592Z,16.73
2023-02-25T07:34:17.969Z,15.97
2023-02-25T07:36:46.176Z,16.67
2023-02-25T07:39:15.859Z,10.40
2023-02-25T07:41:44.539Z,10.67
2023-02-25T07:44:13.905Z,13.10
2023-02-25T07:46:42.181Z,13.40
2023-02-25T07:49:12.157Z,10.70
2023-02-25T07:51:40.395Z,11.23
2023-02-25T07:54:08.525Z,6.93
2023-02-25T07:56:36.709Z,18.97
2023-02-25T07:59:05.199Z,14.57
2023-02-25T08:01:35.379Z,26.90
2023-02-25T08:04:06.322Z,18.87
2023-02-25T08:06:39.307Z,11.37
2023-02-25T08:09:11.186Z,19.97
2023-02-25T08:11:40.324Z,18.77
2023-02-25T08:14:08.700Z,13.70
2023-02-25T08:16:37.664Z,15.10
2023-02-25T08:19:07.621Z,10.97
2023-02-25T08:21:37.441Z,14.03
2023-02-25T08:24:06.358Z,16.17
2023-02-25T08:26:35.202Z,8.80
2023-02-25T08:29:03.407Z,7.53
2023-02-25T08:31:32.065Z,13.73
2023-02-25T08:34:00.976Z,21.80
2023-02-25T08:36:31.281Z,15.80
2023-02-25T08:39:01.886Z,10.43
2023-02-25T08:41:31.140Z,14.23
2023-02-25T08:44:01.449Z,6.77
2023-02-25T08:46:33.179Z,9.90
2023-02-25T08:49:01.946Z,9.80
2023-02-25T08:51:35.157Z,8.73
2023-02-25T08:54:08.156Z,7.23
2023-02-25T08:56:36.826Z,12.83
2023-02-25T08:59:06.247Z,6.60
2023-02-25T09:01:45.100Z,13.47
2023-02-25T09:04:14.450Z,8.50
2023-02-25T09:06:42.623Z,4.23
2023-02-25T09:09:13.454Z,6.27
2023-02-25T09:11:43.446Z,6.83
2023-02-25T09:14:12.738Z,5.27
2023-02-25T09:16:40.980Z,12.13
2023-02-25T09:19:10.930Z,6.60
2023-02-25T09:21:40.658Z,8.80
2023-02-25T09:24:09.835Z,6.80
2023-02-25T09:26:39.598Z,4.97
2023-02-25T09:29:08.464Z,6.93
2023-02-25T09:31:37.803Z,5.17
2023-02-25T09:34:08.627Z,5.50
2023-02-25T09:36:37.313Z,8.77
2023-02-25T09:39:10.196Z,9.37
2023-02-25T09:41:48.044Z,5.67
2023-02-25T09:44:19.429Z,4.73
2023-02-25T09:46:52.733Z,4.47
2023-02-25T09:49:28.825Z,10.00
2023-02-25T09:52:02.094Z,5.83
2023-02-25T09:54:34.796Z,4.27
2023-02-25T09:57:08.218Z,11.33
2023-02-25T09:59:36.635Z,4.37
2023-02-25T10:02:34.107Z,8.47
2023-02-25T10:05:25.734Z,13.53
2023-02-25T10:08:08.498Z,8.27
2023-02-25T10:10:46.745Z,6.37
2023-02-25T10:13:28.881Z,6.20
2023-02-25T10:16:08.491Z,6.50
2023-02-25T10:19:03.743Z,8.00
2023-02-25T10:21:52.011Z,10.20
2023-02-25T10:24:30.178Z,7.00
2023-02-25T10:27:04.496Z,9.90
2023-02-25T10:29:40.160Z,9.83
2023-02-25T10:32:18.454Z,5.60
2023-02-25T10:34:46.781Z,5.97
2023-02-25T10:37:20.184Z,5.33
2023-02-25T10:39:49.192Z,4.13
2023-02-25T10:42:18.313Z,10.90
2023-02-25T10:44:48.231Z,8.10
2023-02-25T10:47:25.540Z,13.10
2023-02-25T10:50:19.344Z,9.60
2023-02-25T10:52:56.882Z,13.97
2023-02-25T10:55:35.213Z,6.43
2023-02-25T10:58:05.003Z,10.33
2023-02-25T11:00:36.833Z,9.13
2023-02-25T11:03:06.213Z,15.43
2023-02-25T11:05:37.533Z,8.20
2023-02-25T11:08:08.215Z,9.53
2023-02-25T11:10:36.744Z,5.20
2023-02-25T11:13:06.133Z,7.67
2023-02-25T11:15:46.888Z,11.23
2023-02-25T11:18:22.855Z,6.40
2023-02-25T11:20:54.740Z,8.10
2023-02-25T11:23:28.349Z,8.13
2023-02-25T11:25:57.565Z,10.53
2023-02-25T11:28:31.682Z,6.30
2023-02-25T11:31:11.732Z,7.10
2023-02-25T11:33:43.624Z,6.10
2023-02-25T11:36:12.532Z,3.30
2023-02-25T11:38:42.602Z,6.00
2023-02-25T11:41:18.865Z,3.27
2023-02-25T11:43:47.213Z,4.20
2023-02-25T11:46:23.129Z,4.97
2023-02-25T11:48:54.331Z,5.43
2023-02-25T11:51:28.996Z,8.60
2023-02-25T11:54:26.157Z,3.17
2023-02-25T11:56:58.461Z,3.17
2023-02-25T11:59:38.340Z,4.90
2023-02-25T12:02:25.198Z,7.80
2023-02-25T12:05:17.705Z,2.90
2023-02-25T12:08:13.514Z,8.60
2023-02-25T12:11:24.146Z,3.60
2023-02-25T12:14:35.012Z,13.13
2023-02-25T12:17:44.913Z,6.43
2023-02-25T12:20:50.250Z,7.80
2023-02-25T12:24:04.736Z,8.83
2023-02-25T12:26:47.801Z,2.83
2023-02-25T12:29:32.470Z,5.63
2023-02-25T12:32:30.978Z,7.50
2023-02-25T12:35:39.763Z,9.10
2023-02-25T12:38:41.233Z,10.80
2023-02-25T12:41:32.912Z,3.47
2023-02-25T12:44:15.346Z,6.40
2023-02-25T12:47:03.110Z,4.20
2023-02-25T12:49:56.790Z,7.13
2023-02-25T12:52:42.661Z,6.73
2023-02-25T12:55:38.198Z,4.23
2023-02-25T12:58:34.731Z,7.00
2023-02-25T13:01:29.603Z,6.77
2023-02-25T13:04:22.550Z,1.77
2023-02-25T13:07:06.327Z,8.47
2023-02-25T13:10:04.872Z,9.00
2023-02-25T13:12:53.936Z,5.47
2023-02-25T13:15:31.138Z,6.10
2023-02-25T13:18:12.535Z,7.77
2023-02-25T13:21:00.338Z,12.20
2023-02-25T13:24:08.281Z,3.23
2023-02-25T13:26:50.679Z,4.17
2023-02-25T13:29:33.052Z,3.47
2023-02-25T13:32:18.104Z,2.23
2023-02-25T13:34:51.152Z,5.00
2023-02-25T13:37:41.205Z,4.90
2023-02-25T13:40:48.309Z,4.27
2023-02-25T13:43:33.954Z,5.80
2023-02-25T13:46:35.872Z,3.17
2023-02-25T13:49:44.222Z,9.57
2023-02-25T13:52:25.555Z,3.50
2023-02-25T13:55:24.181Z,3.73
2023-02-25T13:58:13.876Z,5.97
2023-02-25T14:01:02.022Z,7.37
2023-02-25T14:03:53.932Z,7.37
2023-02-25T14:06:45.490Z,5.40
2023-02-25T14:09:34.260Z,6.47
2023-02-25T14:12:13.273Z,8.17
2023-02-25T14:15:09.923Z,5.17
2023-02-25T14:17:50.058Z,6.20
2023-02-25T14:20:29.415Z,10.07
2023-02-25T14:23:04.805Z,6.37
2023-02-25T14:25:46.570Z,5.60
2023-02-25T14:28:23.303Z,6.03
2023-02-25T14:31:04.580Z,9.80
2023-02-25T14:33:52.317Z,9.70
2023-02-25T14:36:57.583Z,5.13
2023-02-25T14:39:47.692Z,5.13
2023-02-25T14:42:37.360Z,4.80
2023-02-25T14:45:19.775Z,9.90
2023-02-25T14:47:53.576Z,8.60
2023-02-25T14:50:27.096Z,3.70
2023-02-25T14:53:18.818Z,6.93
2023-02-25T14:56:34.765Z,5.33
2023-02-25T14:59:30.313Z,7.03
2023-02-25T15:02:30.928Z,9.13
2023-02-25T15:05:25.976Z,6.67
2023-02-25T15:08:18.890Z,6.23
2023-02-25T15:11:05.546Z,8.83
2023-02-25T15:14:06.875Z,7.53
2023-02-25T15:17:13.706Z,8.07
2023-02-25T15:20:11.448Z,8.03
2023-02-25T15:22:54.293Z,7.37
2023-02-25T15:25:44.661Z,9.87
2023-02-25T15:28:36.014Z,6.70
2023-02-25T15:31:39.085Z,12.17
2023-02-25T15:34:43.403Z,5.30
2023-02-25T15:37:28.396Z,10.43
2023-02-25T15:39:59.024Z,7.10
2023-02-25T15:42:45.792Z,7.50
2023-02-25T15:45:36.929Z,14.13
2023-02-25T15:48:33.915Z,10.77
2023-02-25T15:51:04.082Z,11.53
2023-02-25T15:53:48.289Z,5.97
2023-02-25T15:56:46.076Z,5.77
2023-02-25T15:59:41.581Z,5.40
2023-02-25T16:02:46.923Z,5.43
2023-02-25T16:05:22.105Z,4.40
2023-02-25T16:07:54.051Z,6.73
2023-02-25T16:10:30.095Z,6.67
2023-02-25T16:12:59.157Z,4.37
2023-02-25T16:15:33.815Z,6.20
2023-02-25T16:18:15.133Z,4.90
2023-02-25T16:20:46.557Z,11.03
2023-02-25T16:23:15.761Z,5.53
2023-02-25T16:25:53.471Z,11.00
2023-02-25T16:28:36.465Z,5.23
2023-02-25T16:31:12.847Z,3.83
2023-02-25T16:33:49.630Z,4.70
2023-02-25T16:36:26.975Z,7.80
2023-02-25T16:38:59.178Z,6.20
2023-02-25T16:41:38.237Z,9.17
2023-02-25T16:44:07.890Z,9.90
2023-02-25T16:46:39.402Z,6.87
2023-02-25T16:49:11.757Z,5.67
2023-02-25T16:51:42.301Z,7.40
2023-02-25T16:54:15.170Z,8.53
2023-02-25T16:56:47.390Z,5.87
2023-02-25T16:59:21.904Z,10.03
2023-02-25T17:01:57.474Z,8.40
2023-02-25T17:04:29.998Z,12.30
2023-02-25T17:07:14.802Z,14.13
2023-02-25T17:09:47.620Z,14.67
2023-02-25T17:12:20.750Z,17.50
2023-02-25T17:14:52.203Z,15.77
2023-02-25T17:17:26.365Z,23.77
2023-02-25T17:19:56.674Z,25.10
2023-02-25T17:22:26.578Z,22.50
2023-02-25T17:24:58.128Z,26.30
2023-02-25T17:27:29.217Z,23.60
2023-02-25T17:29:57.782Z,23.60
2023-02-25T17:32:28.610Z,26.23
2023-02-25T17:34:59.413Z,17.93
2023-02-25T17:37:29.511Z,21.90
2023-02-25T17:39:58.421Z,15.93
2023-02-25T17:42:31.938Z,15.63
2023-02-25T17:45:02.008Z,25.50
2023-02-25T17:47:32.490Z,19.90
2023-02-25T17:50:14.231Z,19.03
2023-02-25T17:52:42.657Z,25.13
2023-02-25T17:55:24.364Z,73.20
2023-02-25T17:57:57.379Z,16.97
2023-02-25T18:00:29.301Z,16.43
2023-02-25T18:03:15.368Z,14.00
2023-02-25T18:05:51.845Z,9.40
2023-02-25T18:08:23.820Z,5.70
2023-02-25T18:10:58.808Z,12.80
2023-02-25T18:13:35.564Z,12.30
2023-02-25T18:16:32.319Z,8.27
2023-02-25T18:19:01.408Z,7.17
2023-02-25T18:21:29.956Z,8.93
2023-02-25T18:23:59.994Z,14.57
2023-02-25T18:26:28.330Z,8.43
2023-02-25T18:28:58.544Z,11.90
2023-02-25T18:31:27.341Z,7.50
2023-02-25T18:33:56.115Z,4.73
2023-02-25T18:36:27.752Z,8.90
2023-02-25T18:39:00.055Z,4.07
2023-02-25T18:41:28.974Z,7.37
2023-02-25T18:43:59.999Z,2.80
2023-02-25T18:46:29.263Z,2.20
2023-02-25T18:48:58.268Z,7.20
2023-02-25T18:51:26.628Z,3.60
2023-02-25T18:53:55.439Z,5.00
2023-02-25T18:56:24.040Z,2.87
2023-02-25T18:58:54.929Z,6.73
2023-02-25T19:01:26.911Z,6.90
2023-02-25T19:03:59.999Z,5.43
2023-02-25T19:06:32.077Z,8.13
2023-02-25T19:09:00.445Z,5.90
2023-02-25T19:11:35.550Z,2.60
2023-02-25T19:14:04.594Z,2.57
2023-02-25T19:16:34.529Z,3.23
2023-02-25T19:19:03.640Z,6.53
2023-02-25T19:21:32.065Z,4.23
2023-02-25T19:24:00.396Z,3.53
2023-02-25T19:26:28.755Z,4.47
2023-02-25T19:28:57.665Z,5.60
2023-02-25T19:31:25.903Z,2.63
2023-02-25T19:33:55.550Z,3.20
2023-02-25T19:36:24.070Z,3.90
2023-02-25T19:38:53.137Z,3.37
2023-02-25T19:41:21.555Z,4.80
2023-02-25T19:43:49.746Z,5.03
2023-02-25T19:46:18.265Z,6.30
2023-02-25T19:48:46.569Z,7.47
2023-02-25T19:51:16.710Z,8.00
2023-02-25T19:53:46.012Z,5.57
2023-02-25T19:56:14.539Z,3.13
2023-02-25T19:58:42.902Z,4.00
2023-02-25T20:01:11.226Z,4.40
2023-02-25T20:03:39.601Z,4.93
2023-02-25T20:06:11.776Z,6.73
2023-02-25T20:08:45.238Z,5.80
2023-02-25T20:11:14.339Z,6.90
2023-02-25T20:13:43.376Z,5.03
2023-02-25T20:16:12.062Z,5.37
2023-02-25T20:18:40.390Z,5.50
2023-02-25T20:21:08.752Z,7.67
2023-02-25T20:23:38.995Z,6.97
2023-02-25T20:26:12.641Z,7.53
2023-02-25T20:28:41.537Z,5.97
2023-02-25T20:31:12.723Z,2.77
2023-02-25T20:33:42.090Z,3.87
2023-02-25T20:36:21.631Z,9.13
2023-02-25T20:39:05.169Z,6.77
2023-02-25T20:41:34.899Z,8.23
2023-02-25T20:44:03.607Z,8.37
2023-02-25T20:46:32.239Z,6.47
2023-02-25T20:49:01.054Z,6.83
2023-02-25T20:51:29.867Z,7.97
2023-02-25T20:53:58.756Z,6.10
2023-02-25T20:56:30.419Z,5.37
2023-02-25T20:59:00.319Z,5.80
2023-02-25T21:01:28.973Z,7.57
2023-02-25T21:03:57.599Z,5.60
2023-02-25T21:06:27.826Z,5.67
2023-02-25T21:08:57.052Z,5.70
2023-02-25T21:11:26.288Z,4.70
2023-02-25T21:13:55.882Z,6.73
2023-02-25T21:16:26.464Z,8.10
2023-02-25T21:18:57.744Z,4.90
2023-02-25T21:21:26.863Z,3.13
2023-02-25T21:23:55.540Z,13.60
2023-02-25T21:26:24.022Z,6.83
2023-02-25T21:28:52.736Z,5.20
2023-02-25T21:31:21.273Z,5.17
2023-02-25T21:33:51.235Z,6.23
2023-02-25T21:36:19.945Z,5.50
2023-02-25T21:38:48.107Z,4.17
2023-02-25T21:41:17.219Z,5.70
2023-02-25T21:43:45.557Z,6.50
2023-02-25T21:46:16.272Z,5.20
2023-02-25T21:48:47.860Z,5.50
2023-02-25T21:51:19.651Z,6.27
2023-02-25T21:53:48.144Z,8.47
2023-02-25T21:56:18.295Z,4.70
2023-02-25T21:58:46.867Z,4.17
2023-02-25T22:01:18.531Z,6.63
2023-02-25T22:03:48.369Z,6.57
2023-02-25T22:06:18.127Z,4.23
2023-02-25T22:08:47.462Z,4.53
2023-02-25T22:11:17.591Z,3.30
2023-02-25T22:13:46.519Z,4.23
2023-02-25T22:16:16.975Z,5.27
2023-02-25T22:18:45.858Z,5.70
2023-02-25T22:21:16.647Z,3.00
2023-02-25T22:23:48.519Z,2.90
2023-02-25T22:26:20.975Z,3.10
2023-02-25T22:28:49.695Z,3.17
2023-02-25T22:31:20.274Z,3.37
2023-02-25T22:33:48.558Z,1.97
2023-02-25T22:36:18.895Z,2.87
2023-02-25T22:38:49.489Z,2.33
2023-02-25T22:41:19.698Z,13.23
2023-02-25T22:43:48.966Z,4.77
2023-02-25T22:46:19.411Z,3.63
2023-02-25T22:48:49.235Z,4.77
2023-02-25T22:51:21.811Z,6.00
2023-02-25T22:53:51.877Z,2.87
2023-02-25T22:56:20.767Z,1.90
2023-02-25T22:58:48.967Z,4.07
2023-02-25T23:01:19.566Z,3.53
2023-02-25T23:03:48.657Z,2.80
2023-02-25T23:06:19.417Z,2.30
2023-02-25T23:08:48.589Z,2.63
2023-02-25T23:11:20.204Z,3.53
2023-02-25T23:13:50.682Z,4.43
2023-02-25T23:16:22.747Z,2.80
2023-02-25T23:18:52.473Z,3.90
2023-02-25T23:21:21.169Z,3.30
2023-02-25T23:23:51.190Z,5.63
2023-02-25T23:26:22.630Z,3.27
2023-02-25T23:28:54.946Z,5.43
2023-02-25T23:31:24.761Z,3.17
2023-02-25T23:33:56.232Z,3.23
2023-02-25T23:36:25.291Z,2.60
2023-02-25T23:38:55.250Z,3.80
2023-02-25T23:41:26.461Z,3.30
2023-02-25T23:43:55.838Z,2.67
2023-02-25T23:46:26.145Z,2.90
2023-02-25T23:48:56.447Z,3.73
2023-02-25T23:51:25.611Z,5.20
2023-02-25T23:53:54.277Z,2.97
2023-02-25T23:56:25.183Z,7.97
2023-02-25T23:58:54.370Z,3.37
